Vladimir Tikhonov — A8IA6 — position and weather

sailwx.info

Track history (hours):
 
Tides and Currents Weather Stations Pressure Air Temp Water Temp Dewpoint Dewpoint Depression Visibility Wind Speed Wind Dir Waves Ship Positions

Vladimir Tikhonov

Last reported at 2019-Feb-14 21:32 UTC. Time now 2019-Feb-20 17:16 UTC.
Position N 05°01' E 001°20'.

Length 280 m; draft 9.3 m.

Type: Tanker. MMSI: 636012814.

Date/timePositionNaut miles runAvg speedWind from/ knotsBaromVisibWave heightAir tempDewpointWater temp
2019-Feb-14 21:32N 05°01' E 001°20'114.6
2019-Feb-14 21:29N 05°02' E 001°20'714.3
2019-Feb-14 20:58N 05°09' E 001°20'1514.3
2019-Feb-14 19:56N 05°24' E 001°20'1214.5
2019-Feb-14 19:07N 05°36' E 001°20'314.4
2019-Feb-14 18:54N 05°39' E 001°20'714.4
2019-Feb-14 18:24N 05°46' E 001°21'614.4
2019-Feb-14 18:00N 05°51' E 001°21'714.1
2019-Feb-14 17:30N 05°59' E 001°21'714.0
2019-Feb-14 17:01N 06°06' E 001°21'1 2.6
2019-Feb-14 16:31N 06°07' E 001°21'1 1.0
2019-Feb-14 15:54N 06°07' E 001°20'0 0.9
2019-Feb-14 15:30N 06°07' E 001°20'1 0.8
2019-Feb-14 14:50N 06°06' E 001°20'0 1.0
2019-Feb-14 14:23N 06°06' E 001°19'1 0.9
2019-Feb-14 13:19N 06°05' E 001°19'5 2.1
2019-Feb-14 10:54N 06°01' E 001°17'0 0.1
2019-Feb-14 08:24N 06°01' E 001°17'0 0.0
2019-Feb-14 07:48N 06°01' E 001°17'0 0.0
2019-Feb-14 07:30N 06°01' E 001°17'0 0.0
2019-Feb-14 07:00N 06°01' E 001°17'0 0.0
2019-Feb-14 06:30N 06°01' E 001°17'0 0.0
2019-Feb-14 05:54N 06°01' E 001°17'0 0.0
2019-Feb-14 05:24N 06°01' E 001°17'0 0.0
2019-Feb-14 04:54N 06°01' E 001°17'0 0.0
2019-Feb-14 04:18N 06°01' E 001°17'0 0.0
2019-Feb-14 03:54N 06°01' E 001°17'0 0.0
2019-Feb-14 03:00N 06°01' E 001°17'0 0.0
2019-Feb-14 02:18N 06°01' E 001°17'0 0.0
2019-Feb-14 02:00N 06°01' E 001°17'0 0.0
2019-Feb-14 01:24N 06°01' E 001°17'0 0.0
2019-Feb-14 01:00N 06°01' E 001°17'0 0.0
2019-Feb-14 00:00N 06°01' E 001°17'0 0.0
2019-Feb-13 23:24N 06°01' E 001°17'0 0.0
2019-Feb-13 21:00N 06°01' E 001°17'0 0.0
2019-Feb-13 20:30N 06°01' E 001°17'0 0.0
2019-Feb-13 19:30N 06°01' E 001°17'0 0.1
2019-Feb-13 19:00N 06°01' E 001°17'0 0.0
2019-Feb-13 18:30N 06°01' E 001°17'0 0.0
2019-Feb-13 17:54N 06°01' E 001°17'0 0.1
2019-Feb-13 17:30N 06°01' E 001°17'0 0.0
2019-Feb-13 17:00N 06°01' E 001°17'0 0.0
2019-Feb-13 16:30N 06°01' E 001°17'0 0.0
2019-Feb-13 15:54N 06°01' E 001°17'0 0.0
2019-Feb-13 15:24N 06°01' E 001°17'0 0.0
2019-Feb-13 02:24N 06°01' E 001°17'0 0.0
2019-Feb-13 01:18N 06°01' E 001°17'0 0.0
2019-Feb-13 00:54N 06°01' E 001°17'0 0.0
2019-Feb-13 00:12N 06°01' E 001°17'0 0.0
2019-Feb-13 00:00N 06°01' E 001°17'0 0.0
2019-Feb-12 23:18N 06°01' E 001°17'0 0.0
2019-Feb-12 23:00N 06°01' E 001°17'0 0.0
2019-Feb-12 22:24N 06°01' E 001°17'0 0.0
2019-Feb-12 21:54N 06°01' E 001°17'0 0.0
2019-Feb-12 21:30N 06°01' E 001°17'0 0.0
2019-Feb-12 21:00N 06°01' E 001°17'0 0.0
2019-Feb-12 20:30N 06°01' E 001°17'0 0.0
2019-Feb-12 20:00N 06°01' E 001°17'0 0.0
2019-Feb-12 19:30N 06°01' E 001°17'0 0.0
2019-Feb-12 19:00N 06°01' E 001°17'0 0.0
2019-Feb-12 18:30N 06°01' E 001°17'0 0.0
2019-Feb-12 17:57N 06°01' E 001°17'0 0.0
2019-Feb-12 17:24N 06°01' E 001°17'0 0.0
2019-Feb-12 17:00N 06°01' E 001°17'0 0.0
2019-Feb-12 16:30N 06°01' E 001°17'0 0.2
2019-Feb-12 16:00N 06°01' E 001°17'0 0.1
2019-Feb-12 15:17N 06°01' E 001°17'0 1.0
2019-Feb-12 15:00N 06°01' E 001°16'1 1.9
2019-Feb-12 14:30N 06°02' E 001°16'1 2.3
2019-Feb-12 13:55N 06°03' E 001°16'2 0.2
2019-Feb-12 02:57N 06°05' E 001°17'0 0.0
2019-Feb-12 01:12N 06°05' E 001°17'0 0.0
2019-Feb-12 00:57N 06°05' E 001°17'0 0.0
2019-Feb-11 23:18N 06°05' E 001°17'0 0.0
2019-Feb-11 20:21N 06°05' E 001°17'0 0.0
2019-Feb-11 20:00N 06°05' E 001°17'0 0.0
2019-Feb-11 18:36N 06°05' E 001°16'0 0.0
2019-Feb-11 18:27N 06°05' E 001°16'0 0.0
2019-Feb-11 16:57N 06°05' E 001°16'1 2.1
2019-Feb-11 16:26N 06°05' E 001°18'2 1.9
2019-Feb-11 15:22N 06°06' E 001°19'  
2019-Feb-07 14:14N 06°20' W 014°08'613.7
2019-Feb-07 13:49N 06°23' W 014°13'1013.6
2019-Feb-07 13:07N 06°29' W 014°20'213.6
2019-Feb-07 12:58N 06°31' W 014°22'613.6
2019-Feb-07 12:30N 06°35' W 014°26'813.5
2019-Feb-07 11:55N 06°41' W 014°31'813.4
2019-Feb-07 11:20N 06°47' W 014°37'513.6
2019-Feb-07 10:56N 06°51' W 014°40'1413.3
2019-Feb-07 09:54N 07°01' W 014°50'22113.3
2019-Feb-06 17:23N 09°45' W 017°18'513.1
2019-Feb-06 17:00N 09°49' W 017°22'713.1
2019-Feb-06 16:27N 09°54' W 017°27'912.8
2019-Feb-06 15:43N 10°01' W 017°33'312.8
2019-Feb-06 15:30N 10°03' W 017°35'613.1
2019-Feb-06 15:00N 10°08' W 017°40'712.9
2019-Feb-06 14:30N 10°13' W 017°44'1212.9
2019-Feb-06 13:32N 10°24' W 017°50'013.1
2019-Feb-06 13:30N 10°24' W 017°50'713.1
2019-Feb-06 12:58N 10°31' W 017°53'1413.3
2019-Feb-06 11:56N 10°44' W 017°58'813.3
2019-Feb-06 11:22N 10°51' W 018°00'513.4
2019-Feb-06 11:00N 10°56' W 018°02'713.3
2019-Feb-06 10:30N 11°02' W 018°04'2413.5
2019-Feb-06 08:41N 11°25' W 018°11'  
Track history (hours):
 
Tides and Currents Weather Stations Pressure Air Temp Water Temp Dewpoint Dewpoint Depression Visibility Wind Speed Wind Dir Waves Ship Positions

Vladimir Tikhonov

Last reported at 2019-Feb-14 21:32 UTC. Time now 2019-Feb-20 17:16 UTC.
Position N 05°01' E 001°20'.

Length 280 m; draft 9.3 m.

Type: Tanker. MMSI: 636012814.

Date/timePositionNaut miles runAvg speedWind from/ knotsBaromVisibWave heightAir tempDewpointWater temp
2019-Feb-14 21:32N 05°01' E 001°20'114.6
2019-Feb-14 21:29N 05°02' E 001°20'714.3
2019-Feb-14 20:58N 05°09' E 001°20'1514.3
2019-Feb-14 19:56N 05°24' E 001°20'1214.5
2019-Feb-14 19:07N 05°36' E 001°20'314.4
2019-Feb-14 18:54N 05°39' E 001°20'714.4
2019-Feb-14 18:24N 05°46' E 001°21'614.4
2019-Feb-14 18:00N 05°51' E 001°21'714.1
2019-Feb-14 17:30N 05°59' E 001°21'714.0
2019-Feb-14 17:01N 06°06' E 001°21'1 2.6
2019-Feb-14 16:31N 06°07' E 001°21'1 1.0
2019-Feb-14 15:54N 06°07' E 001°20'0 0.9
2019-Feb-14 15:30N 06°07' E 001°20'1 0.8
2019-Feb-14 14:50N 06°06' E 001°20'0 1.0
2019-Feb-14 14:23N 06°06' E 001°19'1 0.9
2019-Feb-14 13:19N 06°05' E 001°19'5 2.1
2019-Feb-14 10:54N 06°01' E 001°17'0 0.1
2019-Feb-14 08:24N 06°01' E 001°17'0 0.0
2019-Feb-14 07:48N 06°01' E 001°17'0 0.0
2019-Feb-14 07:30N 06°01' E 001°17'0 0.0
2019-Feb-14 07:00N 06°01' E 001°17'0 0.0
2019-Feb-14 06:30N 06°01' E 001°17'0 0.0
2019-Feb-14 05:54N 06°01' E 001°17'0 0.0
2019-Feb-14 05:24N 06°01' E 001°17'0 0.0
2019-Feb-14 04:54N 06°01' E 001°17'0 0.0
2019-Feb-14 04:18N 06°01' E 001°17'0 0.0
2019-Feb-14 03:54N 06°01' E 001°17'0 0.0
2019-Feb-14 03:00N 06°01' E 001°17'0 0.0
2019-Feb-14 02:18N 06°01' E 001°17'0 0.0
2019-Feb-14 02:00N 06°01' E 001°17'0 0.0
2019-Feb-14 01:24N 06°01' E 001°17'0 0.0
2019-Feb-14 01:00N 06°01' E 001°17'0 0.0
2019-Feb-14 00:00N 06°01' E 001°17'0 0.0
2019-Feb-13 23:24N 06°01' E 001°17'0 0.0
2019-Feb-13 21:00N 06°01' E 001°17'0 0.0
2019-Feb-13 20:30N 06°01' E 001°17'0 0.0
2019-Feb-13 19:30N 06°01' E 001°17'0 0.1
2019-Feb-13 19:00N 06°01' E 001°17'0 0.0
2019-Feb-13 18:30N 06°01' E 001°17'0 0.0
2019-Feb-13 17:54N 06°01' E 001°17'0 0.1
2019-Feb-13 17:30N 06°01' E 001°17'0 0.0
2019-Feb-13 17:00N 06°01' E 001°17'0 0.0
2019-Feb-13 16:30N 06°01' E 001°17'0 0.0
2019-Feb-13 15:54N 06°01' E 001°17'0 0.0
2019-Feb-13 15:24N 06°01' E 001°17'0 0.0
2019-Feb-13 02:24N 06°01' E 001°17'0 0.0
2019-Feb-13 01:18N 06°01' E 001°17'0 0.0
2019-Feb-13 00:54N 06°01' E 001°17'0 0.0
2019-Feb-13 00:12N 06°01' E 001°17'0 0.0
2019-Feb-13 00:00N 06°01' E 001°17'0 0.0
2019-Feb-12 23:18N 06°01' E 001°17'0 0.0
2019-Feb-12 23:00N 06°01' E 001°17'0 0.0
2019-Feb-12 22:24N 06°01' E 001°17'0 0.0
2019-Feb-12 21:54N 06°01' E 001°17'0 0.0
2019-Feb-12 21:30N 06°01' E 001°17'0 0.0
2019-Feb-12 21:00N 06°01' E 001°17'0 0.0
2019-Feb-12 20:30N 06°01' E 001°17'0 0.0
2019-Feb-12 20:00N 06°01' E 001°17'0 0.0
2019-Feb-12 19:30N 06°01' E 001°17'0 0.0
2019-Feb-12 19:00N 06°01' E 001°17'0 0.0
2019-Feb-12 18:30N 06°01' E 001°17'0 0.0
2019-Feb-12 17:57N 06°01' E 001°17'0 0.0
2019-Feb-12 17:24N 06°01' E 001°17'0 0.0
2019-Feb-12 17:00N 06°01' E 001°17'0 0.0
2019-Feb-12 16:30N 06°01' E 001°17'0 0.2
2019-Feb-12 16:00N 06°01' E 001°17'0 0.1
2019-Feb-12 15:17N 06°01' E 001°17'0 1.0
2019-Feb-12 15:00N 06°01' E 001°16'1 1.9
2019-Feb-12 14:30N 06°02' E 001°16'1 2.3
2019-Feb-12 13:55N 06°03' E 001°16'2 0.2
2019-Feb-12 02:57N 06°05' E 001°17'0 0.0
2019-Feb-12 01:12N 06°05' E 001°17'0 0.0
2019-Feb-12 00:57N 06°05' E 001°17'0 0.0
2019-Feb-11 23:18N 06°05' E 001°17'0 0.0
2019-Feb-11 20:21N 06°05' E 001°17'0 0.0
2019-Feb-11 20:00N 06°05' E 001°17'0 0.0
2019-Feb-11 18:36N 06°05' E 001°16'0 0.0
2019-Feb-11 18:27N 06°05' E 001°16'0 0.0
2019-Feb-11 16:57N 06°05' E 001°16'1 2.1
2019-Feb-11 16:26N 06°05' E 001°18'2 1.9
2019-Feb-11 15:22N 06°06' E 001°19'  
2019-Feb-07 14:14N 06°20' W 014°08'613.7
2019-Feb-07 13:49N 06°23' W 014°13'1013.6
2019-Feb-07 13:07N 06°29' W 014°20'213.6
2019-Feb-07 12:58N 06°31' W 014°22'613.6
2019-Feb-07 12:30N 06°35' W 014°26'813.5
2019-Feb-07 11:55N 06°41' W 014°31'813.4
2019-Feb-07 11:20N 06°47' W 014°37'513.6
2019-Feb-07 10:56N 06°51' W 014°40'1413.3
2019-Feb-07 09:54N 07°01' W 014°50'22113.3
2019-Feb-06 17:23N 09°45' W 017°18'513.1
2019-Feb-06 17:00N 09°49' W 017°22'713.1
2019-Feb-06 16:27N 09°54' W 017°27'912.8
2019-Feb-06 15:43N 10°01' W 017°33'312.8
2019-Feb-06 15:30N 10°03' W 017°35'613.1
2019-Feb-06 15:00N 10°08' W 017°40'712.9
2019-Feb-06 14:30N 10°13' W 017°44'1212.9
2019-Feb-06 13:32N 10°24' W 017°50'013.1
2019-Feb-06 13:30N 10°24' W 017°50'713.1
2019-Feb-06 12:58N 10°31' W 017°53'1413.3
2019-Feb-06 11:56N 10°44' W 017°58'813.3
2019-Feb-06 11:22N 10°51' W 018°00'513.4
2019-Feb-06 11:00N 10°56' W 018°02'713.3
2019-Feb-06 10:30N 11°02' W 018°04'2413.5
2019-Feb-06 08:41N 11°25' W 018°11'  

Dump ship's entire track history